createdAt,value
2019-02-28T00:01:31.325Z,99858.53
2019-02-28T00:04:01.600Z,99857.73
2019-02-28T00:06:31.728Z,99846.50
2019-02-28T00:09:01.968Z,99853.45
2019-02-28T00:11:39.004Z,99848.32
2019-02-28T00:14:05.982Z,99849.73
2019-02-28T00:16:36.409Z,99850.55
2019-02-28T00:19:06.867Z,99844.16
2019-02-28T00:21:37.331Z,99838.59
2019-02-28T00:24:08.918Z,99833.45
2019-02-28T00:26:39.255Z,99829.77
2019-02-28T00:29:09.601Z,99819.04
2019-02-28T00:31:39.927Z,99824.22
2019-02-28T00:34:10.283Z,99815.34
2019-02-28T00:36:40.385Z,99807.84
2019-02-28T00:39:10.636Z,99800.59
2019-02-28T00:41:44.472Z,99804.95
2019-02-28T00:44:13.015Z,99791.11
2019-02-28T00:46:45.151Z,99784.73
2019-02-28T00:49:15.018Z,99787.27
2019-02-28T00:51:45.286Z,99777.33
2019-02-28T00:54:15.613Z,99776.08
2019-02-28T00:56:51.599Z,99778.26
2019-02-28T00:59:18.150Z,99766.91
2019-02-28T01:01:48.237Z,99752.06
2019-02-28T01:04:18.495Z,99749.94
2019-02-28T01:06:48.976Z,99739.19
2019-02-28T01:09:19.319Z,99731.92
2019-02-28T01:11:49.651Z,99726.27
2019-02-28T01:14:20.013Z,99723.78
2019-02-28T01:16:53.012Z,99727.67
2019-02-28T01:19:22.360Z,99729.33
2019-02-28T01:21:55.412Z,99715.98
2019-02-28T01:24:27.269Z,99709.18
2019-02-28T01:26:57.297Z,99702.47
2019-02-28T01:29:27.576Z,99712.00
2019-02-28T01:31:57.895Z,99702.41
2019-02-28T01:34:29.133Z,99691.72
2019-02-28T01:37:00.337Z,99688.16
2019-02-28T01:39:30.817Z,99680.88
2019-02-28T01:42:01.304Z,99662.05
2019-02-28T01:44:35.578Z,99662.84
2019-02-28T01:47:03.445Z,99651.13
2019-02-28T01:49:34.531Z,99646.53
2019-02-28T01:52:09.632Z,99638.11
2019-02-28T01:54:36.853Z,99639.05
2019-02-28T01:57:08.992Z,99637.75
2019-02-28T01:59:38.863Z,99629.55
2019-02-28T02:02:09.200Z,99624.75
2019-02-28T02:04:43.166Z,99615.20
2019-02-28T02:07:12.486Z,99611.70
2019-02-28T02:09:42.628Z,99609.55
2019-02-28T02:12:14.194Z,99611.85
2019-02-28T02:14:45.667Z,99597.82
2019-02-28T02:17:16.234Z,99590.99
2019-02-28T02:19:49.329Z,99584.64
2019-02-28T02:22:18.588Z,99579.52
2019-02-28T02:24:48.912Z,99572.72
2019-02-28T02:27:19.495Z,99565.02
2019-02-28T02:29:51.009Z,99553.52
2019-02-28T02:32:21.337Z,99557.37
2019-02-28T02:34:51.443Z,99555.07
2019-02-28T02:37:21.687Z,99549.57
2019-02-28T02:39:52.012Z,99546.16
2019-02-28T02:42:22.100Z,99535.48
2019-02-28T02:44:52.096Z,99538.61
2019-02-28T02:47:24.017Z,99540.81
2019-02-28T02:49:57.446Z,99528.78
2019-02-28T02:52:30.277Z,99521.95
2019-02-28T02:54:57.916Z,99509.90
2019-02-28T02:57:28.159Z,99507.02
2019-02-28T02:59:58.248Z,99500.13
2019-02-28T03:02:28.809Z,99493.25
2019-02-28T03:04:59.969Z,99490.31
2019-02-28T03:07:30.225Z,99492.43
2019-02-28T03:10:00.482Z,99484.31
2019-02-28T03:12:31.570Z,99479.08
2019-02-28T03:15:02.609Z,99477.88
2019-02-28T03:17:33.774Z,99472.23
2019-02-28T03:20:07.336Z,99461.62
2019-02-28T03:22:38.054Z,99456.41
2019-02-28T03:25:11.729Z,99446.09
2019-02-28T03:27:41.747Z,99441.80
2019-02-28T03:30:28.912Z,99442.56
2019-02-28T03:32:51.554Z,99432.34
2019-02-28T03:35:21.932Z,99414.76
2019-02-28T03:37:52.269Z,99411.03
2019-02-28T03:40:22.620Z,99410.00
2019-02-28T03:42:52.742Z,99404.41
2019-02-28T03:45:22.732Z,99399.65
2019-02-28T03:47:58.395Z,99393.47
2019-02-28T03:50:24.782Z,99393.94
2019-02-28T03:52:54.953Z,99386.72
2019-02-28T03:55:24.970Z,99377.48
2019-02-28T03:57:55.236Z,99374.35
2019-02-28T04:00:32.635Z,99371.89
2019-02-28T04:02:59.065Z,99373.53
2019-02-28T04:05:29.817Z,99362.27
2019-02-28T04:07:59.880Z,99371.01
2019-02-28T04:10:29.884Z,99367.95
2019-02-28T04:12:59.898Z,99353.78
2019-02-28T04:15:30.491Z,99330.63
2019-02-28T04:18:06.892Z,99327.22
2019-02-28T04:20:37.596Z,99321.73
2019-02-28T04:23:04.884Z,99293.20
2019-02-28T04:25:35.336Z,99314.16
2019-02-28T04:28:05.509Z,99312.52
2019-02-28T04:30:42.635Z,99294.58
2019-02-28T04:33:07.560Z,99289.98
2019-02-28T04:35:37.827Z,99284.77
2019-02-28T04:38:08.174Z,99290.06
2019-02-28T04:40:38.539Z,99283.19
2019-02-28T04:43:10.082Z,99264.42
2019-02-28T04:45:41.266Z,99266.03
2019-02-28T04:48:13.887Z,99262.83
2019-02-28T04:50:43.305Z,99260.20
2019-02-28T04:53:13.406Z,99252.00
2019-02-28T04:55:43.472Z,99261.47
2019-02-28T04:58:13.466Z,99252.11
2019-02-28T05:00:43.466Z,99245.71
2019-02-28T05:03:13.627Z,99242.61
2019-02-28T05:05:46.369Z,99240.57
2019-02-28T05:08:15.923Z,99240.88
2019-02-28T05:10:46.041Z,99235.45
2019-02-28T05:13:16.296Z,99231.58
2019-02-28T05:15:46.683Z,99230.83
2019-02-28T05:18:16.746Z,99230.28
2019-02-28T05:20:47.010Z,99227.28
2019-02-28T05:23:17.076Z,99221.23
2019-02-28T05:25:49.059Z,99214.76
2019-02-28T05:28:18.790Z,99202.12
2019-02-28T05:30:50.171Z,99202.38
2019-02-28T05:33:20.681Z,99208.77
2019-02-28T05:35:50.940Z,99204.30
2019-02-28T05:38:22.567Z,99193.44
2019-02-28T05:40:53.034Z,99182.19
2019-02-28T05:43:25.002Z,99188.31
2019-02-28T05:45:55.270Z,99185.56
2019-02-28T05:48:25.597Z,99170.96
2019-02-28T05:50:55.928Z,99169.11
2019-02-28T05:53:26.009Z,99160.77
2019-02-28T05:55:58.683Z,99166.36
2019-02-28T05:58:28.001Z,99155.77
2019-02-28T06:00:58.197Z,99147.84
2019-02-28T06:03:29.496Z,99144.71
2019-02-28T06:05:59.976Z,99139.77
2019-02-28T06:08:30.402Z,99115.80
2019-02-28T06:11:01.422Z,99130.50
2019-02-28T06:13:31.860Z,99117.97
2019-02-28T06:16:02.184Z,99119.38
2019-02-28T06:18:33.521Z,99128.36
2019-02-28T06:21:03.950Z,99137.80
2019-02-28T06:23:34.278Z,99137.44
2019-02-28T06:26:04.400Z,99127.77
2019-02-28T06:28:34.384Z,99121.61
2019-02-28T06:31:04.402Z,99116.42
2019-02-28T06:33:34.531Z,99123.20
2019-02-28T06:36:04.783Z,99110.90
2019-02-28T06:38:34.838Z,99110.11
2019-02-28T06:41:07.618Z,99092.71
2019-02-28T06:43:37.642Z,99098.03
2019-02-28T06:46:08.529Z,99093.08
2019-02-28T06:48:40.582Z,99088.67
2019-02-28T06:51:10.911Z,99093.23
2019-02-28T06:53:41.780Z,99090.31
2019-02-28T06:56:12.858Z,99082.34
2019-02-28T06:58:44.216Z,99073.07
2019-02-28T07:01:14.555Z,99074.82
2019-02-28T07:03:53.279Z,99063.08
2019-02-28T07:06:16.686Z,99061.17
2019-02-28T07:08:46.884Z,99042.88
2019-02-28T07:11:19.930Z,99041.42
2019-02-28T07:13:49.161Z,99038.42
2019-02-28T07:16:19.284Z,99040.80
2019-02-28T07:18:52.945Z,99032.13
2019-02-28T07:21:23.471Z,99037.53
2019-02-28T07:23:53.576Z,99025.78
2019-02-28T07:26:23.612Z,99025.69
2019-02-28T07:28:53.887Z,99018.77
2019-02-28T07:31:24.671Z,99009.47
2019-02-28T07:33:59.002Z,99025.33
2019-02-28T07:36:29.573Z,99021.16
2019-02-28T07:39:01.337Z,99014.34
2019-02-28T07:41:33.607Z,99009.34
2019-02-28T07:44:05.287Z,99002.55
2019-02-28T07:46:35.398Z,99004.31
2019-02-28T07:49:05.448Z,98989.95
2019-02-28T07:51:35.462Z,99006.94
2019-02-28T07:54:05.605Z,99021.52
2019-02-28T07:56:42.737Z,99023.22
2019-02-28T07:59:08.602Z,99013.70
2019-02-28T08:01:38.894Z,99003.41
2019-02-28T08:04:11.972Z,98990.18
2019-02-28T08:06:43.332Z,98975.98
2019-02-28T08:09:27.932Z,98974.77
2019-02-28T08:11:57.997Z,98963.18
2019-02-28T08:14:28.029Z,98969.36
2019-02-28T08:17:00.658Z,98973.13
2019-02-28T08:19:30.947Z,98961.48
2019-02-28T08:22:01.065Z,98956.90
2019-02-28T08:24:31.912Z,98975.81
2019-02-28T08:27:03.618Z,98963.52
2019-02-28T08:29:35.561Z,98975.80
2019-02-28T08:32:07.815Z,98974.49
2019-02-28T08:34:37.376Z,98967.84
2019-02-28T08:37:08.334Z,98956.94
2019-02-28T08:39:41.177Z,98971.15
2019-02-28T08:42:10.712Z,98976.78
2019-02-28T08:44:42.523Z,98976.58
2019-02-28T08:47:12.818Z,98985.73
2019-02-28T08:49:45.568Z,98991.45
2019-02-28T08:52:16.099Z,98979.41
2019-02-28T08:54:47.795Z,98970.09
2019-02-28T08:57:17.823Z,98967.97
2019-02-28T08:59:48.093Z,98970.06
2019-02-28T09:02:19.052Z,98961.94
2019-02-28T09:04:51.044Z,98949.32
2019-02-28T09:07:21.136Z,98951.46
2019-02-28T09:09:51.144Z,98955.82
2019-02-28T09:12:21.413Z,98943.09
2019-02-28T09:14:51.979Z,98941.78
2019-02-28T09:17:23.824Z,98920.66
2019-02-28T09:19:53.889Z,98921.98
2019-02-28T09:22:27.006Z,98928.81
2019-02-28T09:24:56.960Z,98930.78
2019-02-28T09:27:28.687Z,98934.72
2019-02-28T09:29:58.699Z,98936.23
2019-02-28T09:32:29.883Z,98947.14
2019-02-28T09:35:02.520Z,98934.70
2019-02-28T09:37:33.853Z,98932.48
2019-02-28T09:40:05.570Z,98929.48
2019-02-28T09:42:36.053Z,98923.27
2019-02-28T09:45:11.992Z,98919.06
2019-02-28T09:47:42.276Z,98892.78
2019-02-28T09:50:19.397Z,98899.44
2019-02-28T09:52:49.821Z,98896.77
2019-02-28T09:55:20.390Z,98903.64
2019-02-28T09:57:54.840Z,98904.05
2019-02-28T10:00:28.617Z,98902.41
2019-02-28T10:02:58.972Z,98909.42
2019-02-28T10:05:31.833Z,98895.29
2019-02-28T10:08:03.067Z,98894.48
2019-02-28T10:10:34.111Z,98905.76
2019-02-28T10:13:04.342Z,98913.05
2019-02-28T10:15:34.684Z,98894.44
2019-02-28T10:18:08.192Z,98901.53
2019-02-28T10:20:41.796Z,98907.43
2019-02-28T10:23:11.872Z,98888.30
2019-02-28T10:25:43.672Z,98907.48
2019-02-28T10:28:14.048Z,98911.13
2019-02-28T10:30:44.087Z,98918.09
2019-02-28T10:33:17.394Z,98917.83
2019-02-28T10:35:46.169Z,98895.44
2019-02-28T10:38:16.515Z,98889.11
2019-02-28T10:40:49.317Z,98891.58
2019-02-28T10:43:18.893Z,98894.25
2019-02-28T10:45:48.973Z,98900.83
2019-02-28T10:48:20.680Z,98901.55
2019-02-28T10:50:50.720Z,98892.52
2019-02-28T10:53:22.809Z,98904.14
2019-02-28T10:55:54.474Z,98910.48
2019-02-28T10:58:24.549Z,98912.27
2019-02-28T11:00:54.575Z,98909.41
2019-02-28T11:03:24.582Z,98909.81
2019-02-28T11:05:54.634Z,98915.65
2019-02-28T11:08:24.899Z,98920.07
2019-02-28T11:10:54.972Z,98923.67
2019-02-28T11:13:25.255Z,98925.17
2019-02-28T11:15:55.330Z,98937.39
2019-02-28T11:18:25.665Z,98933.64
2019-02-28T11:20:58.141Z,98932.34
2019-02-28T11:23:28.396Z,98932.34
2019-02-28T11:25:58.428Z,98945.44
2019-02-28T11:28:29.839Z,98943.56
2019-02-28T11:30:59.860Z,98942.63
2019-02-28T11:33:30.861Z,98943.57
2019-02-28T11:36:00.937Z,98951.03
2019-02-28T11:38:31.212Z,98949.53
2019-02-28T11:41:01.573Z,98946.16
2019-02-28T11:43:37.554Z,98947.83
2019-02-28T11:46:04.341Z,98940.33
2019-02-28T11:48:34.466Z,98938.06
2019-02-28T11:51:04.745Z,98943.70
2019-02-28T11:53:39.275Z,98940.45
2019-02-28T11:56:07.085Z,98935.12
2019-02-28T11:58:37.631Z,98940.44
2019-02-28T12:01:10.624Z,98935.30
2019-02-28T12:03:41.078Z,98933.06
2019-02-28T12:06:11.093Z,98942.59
2019-02-28T12:08:44.540Z,98946.50
2019-02-28T12:11:13.159Z,98944.45
2019-02-28T12:13:44.237Z,98926.95
2019-02-28T12:16:16.209Z,98922.56
2019-02-28T12:18:45.998Z,98921.81
2019-02-28T12:21:16.074Z,98916.95
2019-02-28T12:23:46.344Z,98921.81
2019-02-28T12:26:17.729Z,98926.30
2019-02-28T12:28:48.404Z,98926.78
2019-02-28T12:31:18.494Z,98937.72
2019-02-28T12:33:48.511Z,98928.36
2019-02-28T12:36:18.520Z,98954.63
2019-02-28T12:38:48.808Z,98949.87
2019-02-28T12:41:21.585Z,98945.00
2019-02-28T12:43:50.884Z,98947.03
2019-02-28T12:46:22.772Z,98967.24
2019-02-28T12:48:54.618Z,98944.21
2019-02-28T12:51:32.417Z,98960.12
2019-02-28T12:54:02.764Z,98962.33
2019-02-28T12:56:34.731Z,98965.70
2019-02-28T12:59:04.934Z,98966.81
2019-02-28T13:01:40.313Z,98965.42
2019-02-28T13:04:10.685Z,98961.75
2019-02-28T13:06:41.653Z,98954.63
2019-02-28T13:09:13.588Z,98959.52
2019-02-28T13:11:44.824Z,98960.62
2019-02-28T13:14:14.914Z,98962.02
2019-02-28T13:16:45.198Z,98960.94
2019-02-28T13:19:16.433Z,98968.32
2019-02-28T13:21:48.113Z,98966.13
2019-02-28T13:24:19.674Z,98973.60
2019-02-28T13:26:50.021Z,98975.33
2019-02-28T13:29:22.069Z,98976.47
2019-02-28T13:31:52.086Z,98982.20
2019-02-28T13:34:25.246Z,98967.69
2019-02-28T13:37:01.992Z,98978.33
2019-02-28T13:39:27.377Z,98992.72
2019-02-28T13:42:03.127Z,98992.12
2019-02-28T13:44:36.296Z,98993.31
2019-02-28T13:47:09.049Z,98991.91
2019-02-28T13:49:38.459Z,99003.73
2019-02-28T13:52:09.092Z,99006.59
2019-02-28T13:54:42.142Z,99003.46
2019-02-28T13:57:12.583Z,98998.81
2019-02-28T13:59:43.076Z,98998.26
2019-02-28T14:02:13.705Z,98994.01
2019-02-28T14:04:44.375Z,98995.28
2019-02-28T14:07:15.337Z,99004.88
2019-02-28T14:09:45.719Z,99008.50
2019-02-28T14:12:17.001Z,99010.61
2019-02-28T14:14:47.916Z,99011.37
2019-02-28T14:17:17.946Z,99016.94
2019-02-28T14:19:48.608Z,99016.34
2019-02-28T14:22:18.689Z,99013.89
2019-02-28T14:24:48.958Z,99016.73
2019-02-28T14:27:21.598Z,99032.00
2019-02-28T14:29:51.395Z,99020.65
2019-02-28T14:32:21.744Z,99029.26
2019-02-28T14:34:51.773Z,99026.13
2019-02-28T14:37:23.142Z,99008.27
2019-02-28T14:39:53.489Z,99030.34
2019-02-28T14:42:23.825Z,99032.25
2019-02-28T14:44:55.236Z,99038.42
2019-02-28T14:47:28.521Z,99043.96
2019-02-28T14:49:58.274Z,99041.52
2019-02-28T14:52:28.534Z,99036.88
2019-02-28T14:54:58.913Z,99039.95
2019-02-28T14:57:28.988Z,99036.20
2019-02-28T15:00:00.042Z,99048.87
2019-02-28T15:02:32.230Z,99059.94
2019-02-28T15:05:02.588Z,99051.48
2019-02-28T15:07:35.341Z,99044.27
2019-02-28T15:10:09.484Z,99039.35
2019-02-28T15:12:43.527Z,99041.04
2019-02-28T15:15:19.557Z,99043.73
2019-02-28T15:17:50.184Z,99054.28
2019-02-28T15:20:21.886Z,99059.27
2019-02-28T15:22:52.486Z,99067.94
2019-02-28T15:25:29.492Z,99071.63
2019-02-28T15:28:01.934Z,99076.08
2019-02-28T15:30:35.097Z,99074.84
2019-02-28T15:33:06.068Z,99077.29
2019-02-28T15:35:41.346Z,99082.80
2019-02-28T15:38:11.634Z,99076.11
2019-02-28T15:40:47.053Z,99082.18
2019-02-28T15:43:18.421Z,99082.12
2019-02-28T15:45:48.950Z,99082.41
2019-02-28T15:48:19.150Z,99081.61
2019-02-28T15:50:51.931Z,99082.73
2019-02-28T15:53:20.872Z,99086.72
2019-02-28T15:55:51.916Z,99102.05
2019-02-28T15:58:21.923Z,99112.24
2019-02-28T16:00:53.754Z,99100.70
2019-02-28T16:03:24.017Z,99112.86
2019-02-28T16:05:56.213Z,99122.78
2019-02-28T16:08:28.331Z,99107.22
2019-02-28T16:10:58.923Z,99110.52
2019-02-28T16:13:29.113Z,99124.37
2019-02-28T16:16:01.193Z,99145.88
2019-02-28T16:18:32.080Z,99143.01
2019-02-28T16:21:03.497Z,99144.69
2019-02-28T16:23:34.093Z,99142.80
2019-02-28T16:26:07.767Z,99148.20
2019-02-28T16:28:39.548Z,99154.54
2019-02-28T16:31:09.641Z,99149.91
2019-02-28T16:33:39.931Z,99153.94
2019-02-28T16:36:09.989Z,99159.00
2019-02-28T16:38:42.428Z,99161.85
2019-02-28T16:41:12.051Z,99163.40
2019-02-28T16:43:42.319Z,99173.36
2019-02-28T16:46:15.481Z,99175.75
2019-02-28T16:48:44.726Z,99175.47
2019-02-28T16:51:15.090Z,99180.80
2019-02-28T16:53:48.876Z,99182.61
2019-02-28T16:56:19.344Z,99184.66
2019-02-28T16:58:49.338Z,99191.22
2019-02-28T17:01:20.601Z,99189.22
2019-02-28T17:03:51.302Z,99195.78
2019-02-28T17:06:23.024Z,99203.62
2019-02-28T17:08:55.343Z,99205.08
2019-02-28T17:11:25.587Z,99207.69
2019-02-28T17:13:57.509Z,99206.81
2019-02-28T17:16:33.744Z,99209.33
2019-02-28T17:19:04.647Z,99214.44
2019-02-28T17:21:35.077Z,99218.83
2019-02-28T17:24:08.649Z,99226.38
2019-02-28T17:26:45.301Z,99218.06
2019-02-28T17:29:21.531Z,99222.16
2019-02-28T17:31:51.985Z,99227.36
2019-02-28T17:34:24.524Z,99231.37
2019-02-28T17:36:54.665Z,99236.06
2019-02-28T17:39:26.258Z,99234.86
2019-02-28T17:41:56.325Z,99234.51
2019-02-28T17:44:41.870Z,99239.00
2019-02-28T17:47:36.676Z,99241.50
2019-02-28T17:50:46.977Z,99246.69
2019-02-28T17:53:35.231Z,99251.17
2019-02-28T17:56:40.767Z,99240.80
2019-02-28T17:59:36.075Z,99244.97
2019-02-28T18:02:38.142Z,99245.38
2019-02-28T18:05:33.804Z,99247.02
2019-02-28T18:08:38.467Z,99252.48
2019-02-28T18:11:30.870Z,99257.37
2019-02-28T18:14:23.071Z,99254.95
2019-02-28T18:17:09.835Z,99245.26
2019-02-28T18:20:19.530Z,99248.58
2019-02-28T18:23:03.739Z,99242.31
2019-02-28T18:25:37.111Z,99251.80
2019-02-28T18:28:22.544Z,99255.09
2019-02-28T18:31:13.569Z,99249.29
2019-02-28T18:33:54.152Z,99259.75
2019-02-28T18:36:29.878Z,99259.16
2019-02-28T18:39:00.966Z,99263.63
2019-02-28T18:41:32.676Z,99272.47
2019-02-28T18:44:03.653Z,99272.55
2019-02-28T18:46:34.571Z,99280.20
2019-02-28T18:49:04.610Z,99274.17
2019-02-28T18:51:34.607Z,99291.47
2019-02-28T18:54:04.677Z,99295.89
2019-02-28T18:56:36.799Z,99301.27
2019-02-28T18:59:07.989Z,99299.67
2019-02-28T19:01:38.289Z,99303.45
2019-02-28T19:04:08.314Z,99305.65
2019-02-28T19:06:38.569Z,99310.36
2019-02-28T19:09:23.182Z,99328.16
2019-02-28T19:11:53.180Z,99315.89
2019-02-28T19:14:23.279Z,99326.09
2019-02-28T19:16:53.303Z,99332.27
2019-02-28T19:19:23.325Z,99349.10
2019-02-28T19:21:53.434Z,99361.86
2019-02-28T19:24:23.435Z,99353.72
2019-02-28T19:26:53.458Z,99371.64
2019-02-28T19:29:23.775Z,99372.61
2019-02-28T19:31:54.069Z,99374.19
2019-02-28T19:34:24.165Z,99376.98
2019-02-28T19:36:54.175Z,99376.73
2019-02-28T19:39:25.637Z,99373.37
2019-02-28T19:41:57.652Z,99391.36
2019-02-28T19:44:30.211Z,99384.60
2019-02-28T19:47:00.327Z,99393.86
2019-02-28T19:49:30.329Z,99401.63
2019-02-28T19:52:00.319Z,99398.98
2019-02-28T19:54:30.591Z,99391.14
2019-02-28T19:57:01.579Z,99395.75
2019-02-28T19:59:31.670Z,99399.58
2019-02-28T20:02:01.663Z,99398.89
2019-02-28T20:04:31.982Z,99408.45
2019-02-28T20:07:02.058Z,99407.31
2019-02-28T20:09:32.065Z,99411.41
2019-02-28T20:12:02.064Z,99425.47
2019-02-28T20:14:33.159Z,99412.66
2019-02-28T20:17:03.415Z,99415.81
2019-02-28T20:19:33.534Z,99417.23
2019-02-28T20:22:03.545Z,99414.68
2019-02-28T20:24:33.546Z,99418.98
2019-02-28T20:27:03.612Z,99414.35
2019-02-28T20:29:33.918Z,99430.84
2019-02-28T20:32:04.278Z,99420.58
2019-02-28T20:34:36.296Z,99417.99
2019-02-28T20:37:06.421Z,99429.40
2019-02-28T20:39:36.437Z,99423.14
2019-02-28T20:42:06.464Z,99422.47
2019-02-28T20:44:38.977Z,99418.73
2019-02-28T20:47:09.783Z,99426.62
2019-02-28T20:49:40.297Z,99420.77
2019-02-28T20:52:10.365Z,99420.98
2019-02-28T20:54:40.657Z,99419.75
2019-02-28T20:57:10.999Z,99419.00
2019-02-28T20:59:41.136Z,99422.95
2019-02-28T21:02:11.180Z,99429.13
2019-02-28T21:04:41.703Z,99424.22
2019-02-28T21:07:12.044Z,99424.48
2019-02-28T21:09:44.950Z,99422.19
2019-02-28T21:12:14.495Z,99420.30
2019-02-28T21:14:44.650Z,99428.59
2019-02-28T21:17:14.709Z,99432.22
2019-02-28T21:19:44.711Z,99429.08
2019-02-28T21:22:14.893Z,99427.13
2019-02-28T21:24:46.583Z,99438.48
2019-02-28T21:27:16.851Z,99426.19
2019-02-28T21:29:47.185Z,99428.94
2019-02-28T21:32:17.245Z,99423.08
2019-02-28T21:34:47.521Z,99423.59
2019-02-28T21:37:17.843Z,99423.56
2019-02-28T21:39:48.193Z,99417.70
2019-02-28T21:42:18.678Z,99424.32
2019-02-28T21:44:49.026Z,99420.50
2019-02-28T21:47:19.348Z,99416.20
2019-02-28T21:49:52.965Z,99418.45
2019-02-28T21:52:24.090Z,99419.06
2019-02-28T21:54:54.428Z,99423.77
2019-02-28T21:57:24.779Z,99426.96
2019-02-28T21:59:55.168Z,99424.02
2019-02-28T22:02:29.637Z,99420.69
2019-02-28T22:04:59.726Z,99425.20
2019-02-28T22:07:29.730Z,99426.56
2019-02-28T22:09:59.732Z,99428.66
2019-02-28T22:12:29.985Z,99427.83
2019-02-28T22:15:00.327Z,99430.39
2019-02-28T22:17:30.629Z,99428.70
2019-02-28T22:20:00.980Z,99435.48
2019-02-28T22:22:31.321Z,99429.66
2019-02-28T22:25:01.664Z,99429.78
2019-02-28T22:27:32.101Z,99438.36
2019-02-28T22:30:04.094Z,99440.12
2019-02-28T22:32:37.572Z,99440.14
2019-02-28T22:35:09.294Z,99443.58
2019-02-28T22:37:39.575Z,99438.04
2019-02-28T22:40:09.951Z,99449.57
2019-02-28T22:42:40.012Z,99444.86
2019-02-28T22:45:10.057Z,99458.52
2019-02-28T22:47:40.384Z,99452.13
2019-02-28T22:50:10.756Z,99451.22
2019-02-28T22:52:41.074Z,99449.91
2019-02-28T22:55:11.139Z,99457.25
2019-02-28T22:57:41.148Z,99462.41
2019-02-28T23:00:32.128Z,99462.45
2019-02-28T23:03:04.066Z,99458.64
2019-02-28T23:05:34.443Z,99458.55
2019-02-28T23:08:04.757Z,99458.59
2019-02-28T23:10:34.833Z,99452.97
2019-02-28T23:13:04.830Z,99459.83
2019-02-28T23:15:36.631Z,99456.00
2019-02-28T23:18:08.264Z,99455.66
2019-02-28T23:20:38.591Z,99456.46
2019-02-28T23:23:08.663Z,99453.92
2019-02-28T23:25:38.685Z,99461.70
2019-02-28T23:28:26.193Z,99463.45
2019-02-28T23:31:16.239Z,99460.11
2019-02-28T23:33:47.882Z,99455.28
2019-02-28T23:36:18.171Z,99466.06
2019-02-28T23:38:48.533Z,99463.11
2019-02-28T23:41:19.816Z,99457.61
2019-02-28T23:43:49.944Z,99458.06
2019-02-28T23:46:20.180Z,99458.00
2019-02-28T23:48:50.348Z,99460.19
2019-02-28T23:51:20.349Z,99462.84
2019-02-28T23:53:50.626Z,99476.09
2019-02-28T23:56:20.697Z,99476.59
2019-02-28T23:58:50.980Z,99467.55
